Airfield :







YOU CAN JOIN US ON...

 
LOGIN :

Register | Disclaimer

   EN    FR    IT 

 









Legend :    VFR   Marginal VFR   IFR   Intensive IFR   Very Intensive IFR
Visi :
Ceiling :
>= 8 km
>= 3000ft
5 to 8 km
1000 to 3000 ft
1500m to 5 km
500 to 1000 ft
800 to 1500m
200 to 500 ft
< 800m
< 200 ft
Symbols :   Thunderstorms  Fog  Heavy snow  Heavy precipitations  Wind > 20 kt






- Airport Elevation : 489 ft


KHUL - Houlton International

CURRENT METAR :
  • 172153Z AUTO 15004KT 10SM BKN015 BKN026 OVC034 10/08 A2909 RMK AO2 RAB2056E05 SLP853 P0000 T01000083

EXPIRED METARs :
  • 172053Z AUTO 15003KT 9SM FEW017 BKN023 OVC049 11/09 A2908 RMK AO2 RAB1959E40 SLP849 P0001 60005 T01060089 55007
  • 172033Z AUTO 17007KT 8SM -RA FEW010 BKN039 OVC049 11/09 A2908 RMK AO2 RAB1959 P0001 T01060089
  • 172014Z AUTO 13008KT 080V180 3SM -RA BR SCT010 BKN017 OVC026 11/09 A2908 RMK AO2 RAB1959 P0001 T01110094
  • 172003Z AUTO 10006KT 2 1/2SM -RA BR FEW008 BKN017 OVC026 11/09 A2907 RMK AO2 VIS 1 1/2V5 RAB1959 P0000 T01110094
  • 171941Z AUTO 07006KT 3SM -RA BR OVC009 11/09 A2907 RMK AO2 RAE11B19 P0002 T01060094
  • 171929Z AUTO 07007G15KT 1 1/4SM RA BR OVC010 11/09 A2907 RMK AO2 RAE11B19 P0002 T01060089

TAF KHUL
Valid from the 17 at 21:00 until the 18 at 18:00 UTC


172038Z 1721/1818 15009KT 6SM -SHRADZ SCT012 OVC025
FM172330 11007KT 5SM -RA OVC009
FM180500 VRB02KT P6SM VCSH OVC005
FM181100 30008KT P6SM OVC010



MET'MAP, your aeronautical weather chart ! - Copyright ORBIFLY December 2007 - Disclaimer

ORBIFLY MET'MAP TEAM :

Programming & Development : Alexandra Zaïnal
Concept & Development : Baudouin d'Aumeries
Co-Development & Prog : Marc-Olivier Méhu
Technical & hardware support : Manuel Goepfert

Contact : metmap@orbifly.com




SOURCES & CREDITS :

   NOAA